Time;durP1;ratioP1;P1;durP2;ratioP2;P2;SDS_P1;SDS_P2;PMS_P1;PMS_P2;Temp;Humidity;BMP_temperature;BMP_pressure;BME280_temperature;BME280_humidity;BME280_pressure;Samples;Min_cycle;Max_cycle;Signal;HPM_P1;HPM_P2
2023/05/09 04:11:41;;;;;;;10.68;6.03;;;;;;;6.23;93.87;101105.31;5577989;31;808792;-87
2023/05/09 04:14:50;;;;;;;8.40;6.05;;;;;;;6.24;94.15;101107.03;5583073;31;34081;-87
2023/05/09 04:18:00;;;;;;;7.55;5.57;;;;;;;6.30;92.64;101107.75;5581818;31;34028;-87
2023/05/09 04:21:09;;;;;;;6.80;5.40;;;;;;;6.34;91.61;101098.91;5581943;32;33914;-87
2023/05/09 04:24:17;;;;;;;7.55;5.62;;;;;;;6.45;91.83;101103.09;5581808;32;34044;-87
2023/05/09 04:27:26;;;;;;;9.43;5.72;;;;;;;6.53;91.74;101106.44;5582116;32;33787;-87
2023/05/09 04:30:34;;;;;;;7.70;5.60;;;;;;;6.63;89.69;101100.97;5581360;31;33608;-87
2023/05/09 04:33:43;;;;;;;6.93;5.35;;;;;;;6.69;90.71;101101.69;5581442;32;33835;-87
2023/05/09 04:36:52;;;;;;;8.43;5.60;;;;;;;6.77;88.67;101101.53;5581687;31;34392;-87
2023/05/09 04:39:59;;;;;;;5.68;4.87;;;;;;;6.83;87.83;101103.16;5581759;31;34577;-86
2023/05/09 04:43:05;;;;;;;8.23;5.60;;;;;;;6.98;88.28;101105.44;5581633;32;33783;-87
2023/05/09 04:46:14;;;;;;;7.45;5.57;;;;;;;7.08;86.38;101103.47;5581742;31;33680;-85
2023/05/09 04:49:21;;;;;;;7.85;5.80;;;;;;;7.04;85.15;101106.22;5581576;31;33830;-89
2023/05/09 04:52:30;;;;;;;6.50;5.47;;;;;;;7.21;84.49;101109.34;5582304;31;33845;-90
2023/05/09 04:55:38;;;;;;;7.90;4.87;;;;;;;7.35;83.50;101106.34;5583067;31;34361;-86
2023/05/09 04:58:45;;;;;;;6.43;5.10;;;;;;;7.41;82.02;101108.81;5581868;32;34923;-86
2023/05/09 05:01:54;;;;;;;6.62;5.20;;;;;;;7.50;81.65;101106.88;5581825;32;33693;-86
2023/05/09 05:05:04;;;;;;;7.47;5.78;;;;;;;7.72;81.02;101106.31;5582815;31;34512;-85
2023/05/09 05:08:17;;;;;;;8.43;5.72;;;;;;;7.74;79.26;101112.44;5582187;31;34256;-86
2023/05/09 05:11:26;;;;;;;7.60;5.37;;;;;;;7.73;78.24;101108.03;5581746;32;33582;-86
2023/05/09 05:14:35;;;;;;;7.25;5.47;;;;;;;7.84;77.60;101103.34;5582062;31;33471;-86
2023/05/09 05:17:41;;;;;;;7.70;5.25;;;;;;;8.56;75.15;101110.19;5583476;31;34444;-87
2023/05/09 05:20:46;;;;;;;8.18;5.30;;;;;;;8.65;74.23;101111.69;5578698;32;33531;-87
2023/05/09 05:23:55;;;;;;;6.93;5.80;;;;;;;8.63;73.88;101121.47;5569121;32;33574;-87
2023/05/09 05:27:02;;;;;;;6.70;5.45;;;;;;;8.84;73.03;101106.72;5569064;32;33410;-86
2023/05/09 05:30:11;;;;;;;7.37;5.70;;;;;;;9.33;70.39;101114.03;5566851;32;33616;-86
2023/05/09 05:33:20;;;;;;;7.05;4.80;;;;;;;11.00;64.11;101108.97;5568558;32;33704;-87
2023/05/09 05:36:30;;;;;;;6.37;5.10;;;;;;;11.91;59.61;101110.59;5573348;32;33959;-87
2023/05/09 05:39:40;;;;;;;6.80;4.85;;;;;;;12.28;57.97;101106.34;5566594;32;34662;-87
2023/05/09 05:42:53;;;;;;;6.85;4.78;;;;;;;12.93;54.98;101111.28;5563541;32;33838;-87
2023/05/09 05:46:01;;;;;;;6.82;4.70;;;;;;;14.73;50.04;101105.72;5559686;32;34119;-87
2023/05/09 05:49:08;;;;;;;6.28;4.90;;;;;;;13.89;51.27;101104.87;5561351;31;33609;-91
2023/05/09 05:52:16;;;;;;;7.50;5.15;;;;;;;14.34;50.11;101105.16;5561893;31;34715;-91
2023/05/09 05:55:23;;;;;;;6.03;4.45;;;;;;;13.42;53.32;101109.00;5560053;31;34442;-88
2023/05/09 05:58:30;;;;;;;5.28;4.72;;;;;;;12.27;55.70;101104.56;5563124;32;34861;-87
2023/05/09 06:01:41;;;;;;;6.20;4.68;;;;;;;11.95;57.76;101109.50;5559399;32;33879;-88
2023/05/09 06:04:47;;;;;;;7.12;4.95;;;;;;;12.45;56.24;101116.19;5568825;31;34333;-88
2023/05/09 06:07:53;;;;;;;8.93;4.93;;;;;;;12.59;54.98;101112.91;5579631;31;35859;-87
2023/05/09 06:11:00;;;;;;;15.18;4.57;;;;;;;13.34;52.74;101104.03;5572858;31;34824;-87
2023/05/09 06:14:05;;;;;;;6.05;4.45;;;;;;;14.88;49.69;101111.19;5568380;32;35129;-86
2023/05/09 06:17:10;;;;;;;7.43;4.30;;;;;;;16.66;44.17;101113.16;5572572;32;34399;-85
2023/05/09 06:20:15;;;;;;;6.40;4.22;;;;;;;17.75;40.24;101107.91;5560614;32;34366;-86
2023/05/09 06:23:21;;;;;;;8.13;4.55;;;;;;;17.72;41.71;101110.78;5560884;31;33780;-86
2023/05/09 06:26:26;;;;;;;12.65;4.50;;;;;;;18.22;40.35;101120.81;5564269;31;33968;-85
2023/05/09 06:29:31;;;;;;;6.53;4.45;;;;;;;18.71;39.71;101111.94;5563438;32;34588;-86
2023/05/09 06:32:39;;;;;;;6.47;4.50;;;;;;;16.96;41.86;101096.03;5553314;31;34552;-85
2023/05/09 06:35:45;;;;;;;5.75;4.37;;;;;;;15.74;45.71;101099.97;5558196;31;33704;-84
2023/05/09 06:38:49;;;;;;;3.90;3.60;;;;;;;15.38;46.13;101092.34;5561303;31;34101;-84
2023/05/09 06:41:54;;;;;;;5.03;4.53;;;;;;;15.05;48.13;101096.88;5558693;31;33452;-84
2023/05/09 06:45:00;;;;;;;5.03;4.00;;;;;;;15.36;47.32;101095.97;5578222;31;33665;-85
2023/05/09 06:48:07;;;;;;;5.30;3.42;;;;;;;15.12;48.41;101092.91;5564734;31;33576;-84
2023/05/09 06:51:13;;;;;;;8.15;3.25;;;;;;;14.91;48.47;101090.50;5572897;31;35144;-84
2023/05/09 06:54:21;;;;;;;7.57;3.33;;;;;;;14.47;48.50;101092.00;5553837;31;33649;-85
2023/05/09 06:57:25;;;;;;;6.45;2.87;;;;;;;14.10;50.43;101078.88;5563876;31;34189;-85
2023/05/09 07:00:28;;;;;;;2.78;2.55;;;;;;;15.50;48.05;101081.78;5563460;31;33702;-85
2023/05/09 07:03:31;;;;;;;2.47;2.28;;;;;;;16.12;45.28;101073.69;5550119;32;34162;-85
2023/05/09 07:06:34;;;;;;;7.72;2.30;;;;;;;16.87;42.81;101068.97;5555159;31;34147;-86
2023/05/09 07:09:41;;;;;;;2.40;2.20;;;;;;;16.01;43.86;101077.91;5566510;31;33904;-86
2023/05/09 07:12:49;;;;;;;4.18;2.42;;;;;;;15.42;46.19;101067.13;5566939;31;33613;-90
2023/05/09 07:15:54;;;;;;;4.57;2.45;;;;;;;15.02;47.20;101067.66;5561392;31;34392;-90
2023/05/09 07:18:59;;;;;;;2.47;2.08;;;;;;;15.33;47.97;101069.41;5563986;31;33753;-87
2023/05/09 07:22:05;;;;;;;3.97;2.10;;;;;;;15.13;46.67;101065.22;5554935;31;33452;-88
2023/05/09 07:25:10;;;;;;;4.47;2.20;;;;;;;15.23;47.44;101063.75;5568560;31;33533;-86
2023/05/09 07:28:14;;;;;;;2.15;1.90;;;;;;;15.74;46.51;101056.34;5565555;31;33469;-87
2023/05/09 07:31:19;;;;;;;2.33;1.90;;;;;;;15.34;46.20;101052.41;5561786;31;33787;-86
2023/05/09 07:34:24;;;;;;;2.80;1.83;;;;;;;15.44;46.89;101046.53;5556064;31;34060;-86
2023/05/09 07:37:29;;;;;;;3.00;2.10;;;;;;;15.73;45.63;101051.91;5564377;31;34575;-86
2023/05/09 07:40:36;;;;;;;7.12;2.35;;;;;;;15.49;46.00;101044.44;5565816;31;33611;-86
2023/05/09 07:43:39;;;;;;;2.53;1.60;;;;;;;15.79;46.10;101040.84;5571600;31;34090;-85
2023/05/09 07:46:42;;;;;;;2.67;1.77;;;;;;;16.05;46.01;101042.91;5557170;31;35003;-85
2023/05/09 07:49:46;;;;;;;2.10;1.90;;;;;;;16.89;44.52;101034.94;5568419;31;34944;-86
2023/05/09 07:52:54;;;;;;;2.47;1.98;;;;;;;17.06;43.24;101033.81;5557452;31;34772;-86
2023/05/09 07:56:01;;;;;;;7.80;2.17;;;;;;;17.22;42.84;101030.97;5579868;31;33194;-86
2023/05/09 07:59:08;;;;;;;3.47;1.80;;;;;;;17.05;43.29;101029.44;5588414;31;34121;-86
2023/05/09 08:02:17;;;;;;;1.65;1.45;;;;;;;17.01;42.92;101022.53;5589406;31;33503;-85
2023/05/09 08:05:24;;;;;;;4.53;1.73;;;;;;;17.20;41.89;101020.34;5587312;31;33721;-86
2023/05/09 08:08:28;;;;;;;2.05;1.50;;;;;;;18.12;41.27;101013.22;5553106;32;33601;-86
2023/05/09 08:11:37;;;;;;;1.48;1.37;;;;;;;17.98;41.10;101015.03;5554814;32;33838;-84
2023/05/09 08:14:42;;;;;;;3.05;1.40;;;;;;;18.52;40.45;101009.47;5553473;32;35787;-84
2023/05/09 08:17:47;;;;;;;3.12;1.50;;;;;;;18.78;38.99;100999.47;5560306;32;33871;-84
2023/05/09 08:20:53;;;;;;;2.62;1.42;;;;;;;18.95;39.84;101003.56;5568850;32;34298;-84
2023/05/09 08:23:59;;;;;;;2.12;1.40;;;;;;;19.63;37.92;101008.34;5550663;32;34548;-85
2023/05/09 08:27:05;;;;;;;1.50;1.40;;;;;;;19.41;38.64;101005.59;5552913;32;34033;-85
2023/05/09 08:30:10;;;;;;;1.70;1.60;;;;;;;19.64;37.32;101006.47;5555065;32;34553;-86
2023/05/09 08:33:13;;;;;;;2.95;1.70;;;;;;;19.04;38.26;101002.06;5559848;32;33787;-85
2023/05/09 08:36:18;;;;;;;1.90;1.75;;;;;;;19.27;37.91;100999.44;5549698;32;33625;-87
2023/05/09 08:39:25;;;;;;;4.43;1.40;;;;;;;19.40;37.48;101002.03;5553778;32;34858;-84
2023/05/09 08:42:30;;;;;;;1.65;1.42;;;;;;;;;;5558891;32;33795;-90
2023/05/09 08:45:51;;;;;;;1.30;1.20;;;;;;;20.95;34.19;100991.53;5556550;31;34072;-90
2023/05/09 08:48:56;;;;;;;1.83;1.30;;;;;;;21.39;34.26;100988.75;5548362;32;34652;-86
2023/05/09 08:52:03;;;;;;;1.50;1.40;;;;;;;20.92;34.15;100991.78;5549631;32;34154;-86
2023/05/09 08:55:11;;;;;;;3.25;1.45;;;;;;;20.51;35.74;100988.00;5557018;32;34027;-86
2023/05/09 08:58:18;;;;;;;1.55;1.40;;;;;;;20.80;35.12;100977.47;5574529;31;33771;-85
2023/05/09 09:01:25;;;;;;;9.80;1.98;;;;;;;20.89;34.12;100985.78;5572422;31;34022;-87
2023/05/09 09:04:31;;;;;;;4.45;1.25;;;;;;;20.51;36.16;100975.34;5570062;31;33703;-84
2023/05/09 09:07:37;;;;;;;2.28;1.30;;;;;;;20.23;34.98;100974.06;5566716;31;34795;-85
2023/05/09 09:10:46;;;;;;;1.15;1.05;;;;;;;19.86;36.30;100976.03;5573713;31;33730;-85
2023/05/09 09:13:55;;;;;;;2.30;1.33;;;;;;;21.02;33.96;100959.50;5565363;31;33937;-84
2023/05/09 09:17:01;;;;;;;3.25;1.40;;;;;;;21.94;33.37;100959.75;5591925;31;34149;-84
2023/05/09 09:20:13;;;;;;;3.08;1.30;;;;;;;21.23;34.00;100953.25;5571809;31;34755;-84
2023/05/09 09:23:23;;;;;;;3.37;1.20;;;;;;;21.85;32.34;100965.97;5564044;31;34874;-83
2023/05/09 09:26:30;;;;;;;6.47;1.48;;;;;;;21.34;32.43;100965.81;5552497;32;34103;-84
2023/05/09 09:29:37;;;;;;;2.90;1.20;;;;;;;21.38;32.67;100951.91;5551746;32;33844;-84
2023/05/09 09:32:43;;;;;;;2.45;1.30;;;;;;;22.17;32.79;100962.25;5553058;32;33791;-85
2023/05/09 09:35:53;;;;;;;1.48;1.20;;;;;;;22.56;29.99;100973.16;5554731;32;34681;-83
2023/05/09 09:39:01;;;;;;;4.45;1.20;;;;;;;22.84;31.11;100961.63;5561027;31;34927;-84
2023/05/09 09:42:11;;;;;;;1.35;1.00;;;;;;;22.78;30.23;100963.03;5571390;32;33723;-84
2023/05/09 09:45:17;;;;;;;1.85;1.10;;;;;;;22.64;29.97;100961.63;5574692;32;33771;-87
2023/05/09 09:48:29;;;;;;;1.80;1.12;;;;;;;22.88;29.04;100958.50;5573201;31;34136;-87
2023/05/09 09:51:33;;;;;;;1.55;1.45;;;;;;;25.05;27.38;100964.81;5574119;31;35194;-85
2023/05/09 09:54:37;;;;;;;1.67;1.20;;;;;;;25.88;25.49;100965.31;5559891;32;36079;-85
2023/05/09 09:57:47;;;;;;;3.58;1.45;;;;;;;24.13;28.30;100954.88;5570034;31;34769;-85
2023/05/09 10:01:10;;;;;;;2.47;1.15;;;;;;;23.80;28.45;100957.19;5560369;31;34748;-85
2023/05/09 10:04:16;;;;;;;1.65;1.40;;;;;;;22.94;29.85;100951.69;5570320;31;33630;-84
2023/05/09 10:07:22;;;;;;;2.95;1.35;;;;;;;22.35;30.82;100947.06;5569013;31;34822;-85
2023/05/09 10:10:34;;;;;;;4.55;1.45;;;;;;;21.12;31.79;100938.84;5573135;32;34138;-84
2023/05/09 10:13:38;;;;;;;4.15;1.45;;;;;;;20.11;34.27;100931.00;5561449;32;33927;-84
2023/05/09 10:16:49;;;;;;;2.80;1.30;;;;;;;21.07;33.11;100929.47;5577805;31;33859;-84
2023/05/09 10:19:54;;;;;;;1.27;1.27;;;;;;;21.46;30.74;100942.34;5560024;32;34212;-84
2023/05/09 10:23:05;;;;;;;1.65;1.30;;;;;;;20.25;32.83;100932.56;5570366;31;34716;-84
2023/05/09 10:26:16;;;;;;;;;;;;;;;19.76;33.96;100926.62;5569198;31;34046;-85
2023/05/09 10:29:26;;;;;;;3.37;1.77;;;;;;;19.85;33.19;100928.56;5576774;31;34604;-85
2023/05/09 10:32:49;;;;;;;3.53;1.50;;;;;;;19.88;32.98;100930.16;5590260;31;33793;-84
2023/05/09 10:36:00;;;;;;;3.22;1.30;;;;;;;21.65;30.31;100928.91;5554369;31;34657;-84
2023/05/09 10:39:05;;;;;;;4.25;1.40;;;;;;;21.70;31.26;100920.44;5577335;31;34884;-88
2023/05/09 10:42:13;;;;;;;2.87;1.70;;;;;;;21.73;31.11;100916.62;5587940;31;33974;-90
2023/05/09 10:45:21;;;;;;;3.58;1.80;;;;;;;20.36;32.58;100917.38;5580434;31;33736;-85
2023/05/09 10:48:27;;;;;;;12.35;2.05;;;;;;;19.93;32.94;100918.00;5566220;31;33948;-85
2023/05/09 10:51:32;;;;;;;1.73;1.62;;;;;;;19.96;32.89;100914.25;5555515;31;33957;-86
2023/05/09 10:54:36;;;;;;;1.50;1.40;;;;;;;20.55;32.81;100913.97;5572140;31;33772;-86
2023/05/09 10:57:53;;;;;;;2.67;1.80;;;;;;;20.33;33.04;100924.69;5575346;31;33923;-85
2023/05/09 11:01:00;;;;;;;3.33;1.65;;;;;;;20.78;33.33;100924.66;5563779;31;34091;-86
2023/05/09 11:04:15;;;;;;;3.80;1.80;;;;;;;20.99;33.32;100912.09;5563923;31;33895;-85
2023/05/09 11:07:24;;;;;;;2.92;1.52;;;;;;;22.22;30.44;100916.72;5569696;31;33775;-85
2023/05/09 11:10:41;;;;;;;6.55;2.20;;;;;;;21.26;31.37;100908.00;5565590;31;34784;-86
2023/05/09 11:13:45;;;;;;;2.35;1.83;;;;;;;21.60;32.22;100901.47;5570347;31;31695;-86
2023/05/09 11:17:02;;;;;;;4.70;1.70;;;;;;;20.66;32.63;100903.16;5573441;31;34567;-85
2023/05/09 11:20:07;;;;;;;3.20;1.95;;;;;;;20.30;33.66;100899.84;5563639;31;34237;-84
2023/05/09 11:23:10;;;;;;;3.58;1.92;;;;;;;20.52;34.05;100895.38;5567102;31;34287;-85
2023/05/09 11:26:15;;;;;;;1.60;1.50;;;;;;;19.85;33.92;100885.50;5565148;32;33756;-86
2023/05/09 11:29:19;;;;;;;1.75;1.58;;;;;;;19.16;34.90;100891.84;5565909;31;33919;-86
2023/05/09 11:32:31;;;;;;;2.37;1.98;;;;;;;19.03;34.08;100890.13;5563668;31;34395;-82
2023/05/09 11:35:38;;;;;;;2.20;1.80;;;;;;;19.17;34.47;100878.28;5573827;31;33862;-85
2023/05/09 11:38:47;;;;;;;2.75;1.58;;;;;;;19.67;35.32;100879.78;5581347;31;33973;-84
2023/05/09 11:41:52;;;;;;;2.25;1.37;;;;;;;20.26;34.13;100880.41;5573052;31;33791;-88
2023/05/09 11:44:57;;;;;;;1.30;1.27;;;;;;;20.09;33.42;100876.41;5576589;31;33832;-90
2023/05/09 11:48:07;;;;;;;2.22;1.40;;;;;;;20.14;34.30;100866.12;5571053;31;33902;-88
2023/05/09 11:51:19;;;;;;;2.03;1.40;;;;;;;19.59;33.08;100868.75;5571179;31;33989;-85
2023/05/09 11:54:24;;;;;;;1.50;1.40;;;;;;;19.19;33.82;100870.09;5569732;31;33892;-85
2023/05/09 11:57:32;;;;;;;4.53;1.75;;;;;;;19.29;34.38;100868.38;5573724;31;34087;-86
2023/05/09 12:00:43;;;;;;;1.60;1.50;;;;;;;18.51;35.97;100860.00;5558715;32;34879;-85
2023/05/09 12:03:48;;;;;;;1.55;1.40;;;;;;;18.53;36.35;100868.81;5570690;31;33331;-86
2023/05/09 12:06:52;;;;;;;4.00;1.30;;;;;;;18.06;37.58;100858.84;5568118;32;33989;-87
2023/05/09 12:09:56;;;;;;;3.45;2.03;;;;;;;18.08;37.69;100853.31;5560298;31;34253;-86
2023/05/09 12:13:00;;;;;;;4.07;1.87;;;;;;;17.91;38.16;100845.53;5565084;31;33973;-83
2023/05/09 12:16:07;;;;;;;1.70;1.60;;;;;;;17.86;38.97;100852.22;5558396;31;33728;-83
2023/05/09 12:19:11;;;;;;;1.40;1.30;;;;;;;18.39;38.42;100842.97;5585750;31;33795;-83
2023/05/09 12:22:14;;;;;;;1.52;1.42;;;;;;;18.64;36.68;100841.97;5556295;31;33569;-83
2023/05/09 12:25:21;;;;;;;5.35;1.52;;;;;;;19.20;34.02;100844.91;5560087;31;33874;-84
2023/05/09 12:28:25;;;;;;;2.20;1.35;;;;;;;19.22;34.25;100834.91;5557644;31;33983;-86
2023/05/09 12:31:29;;;;;;;2.05;1.52;;;;;;;18.67;35.01;100841.75;5561163;31;34449;-86
2023/05/09 12:34:33;;;;;;;1.92;1.42;;;;;;;18.23;36.39;100833.41;5566337;31;34459;-86
2023/05/09 12:37:38;;;;;;;2.97;1.33;;;;;;;18.75;36.51;100829.56;5568403;32;33910;-85
2023/05/09 12:40:47;;;;;;;2.35;1.58;;;;;;;18.93;35.88;100827.25;5571486;32;33604;-85
2023/05/09 12:43:51;;;;;;;3.58;1.70;;;;;;;18.23;36.83;100817.28;5559551;32;33911;-83
2023/05/09 12:47:00;;;;;;;3.40;1.77;;;;;;;17.78;37.89;100824.13;5560397;32;35237;-83
2023/05/09 12:50:06;;;;;;;1.60;1.48;;;;;;;17.72;37.87;100815.66;5561969;31;34205;-84
2023/05/09 12:53:12;;;;;;;1.65;1.55;;;;;;;18.30;38.70;100815.84;5558509;31;34575;-84
2023/05/09 12:56:18;;;;;;;1.92;1.73;;;;;;;18.25;38.72;100804.59;5558648;32;33815;-84
2023/05/09 12:59:27;;;;;;;2.83;1.87;;;;;;;18.55;38.67;100803.25;5561699;31;34093;-84
2023/05/09 13:02:36;;;;;;;5.00;1.70;;;;;;;18.69;37.92;100793.25;5558275;32;33651;-89
2023/05/09 13:05:41;;;;;;;2.40;2.20;;;;;;;18.18;39.17;100806.91;5552378;32;34085;-89
2023/05/09 13:08:59;;;;;;;2.75;1.90;;;;;;;17.97;38.80;100787.00;5552780;31;33954;-86
2023/05/09 13:12:08;;;;;;;1.60;1.50;;;;;;;18.54;38.68;100788.09;5560003;31;33805;-86
2023/05/09 13:15:21;;;;;;;2.30;2.10;;;;;;;18.51;38.83;100791.00;5564320;31;33894;-85
2023/05/09 13:18:26;;;;;;;2.80;2.10;;;;;;;18.51;38.92;100777.56;5562662;32;33852;-84
2023/05/09 13:21:31;;;;;;;2.20;2.00;;;;;;;17.98;38.80;100776.16;5562258;31;34130;-82
2023/05/09 13:24:35;;;;;;;3.40;1.87;;;;;;;17.90;40.45;100774.03;5565613;31;33951;-84
2023/05/09 13:27:40;;;;;;;2.67;1.73;;;;;;;17.75;39.96;100764.47;5571819;31;35180;-84
2023/05/09 13:30:47;;;;;;;1.92;1.67;;;;;;;17.99;40.24;100767.12;5574728;31;33872;-84
2023/05/09 13:33:52;;;;;;;3.25;1.80;;;;;;;18.13;39.53;100771.50;5589545;31;33639;-82
2023/05/09 13:36:57;;;;;;;1.80;1.55;;;;;;;18.38;40.71;100764.25;5579634;31;34798;-84
2023/05/09 13:40:03;;;;;;;1.85;1.73;;;;;;;18.64;38.86;100763.19;5567318;31;33273;-85
2023/05/09 13:43:08;;;;;;;1.85;1.55;;;;;;;18.32;38.90;100760.19;5562038;32;34205;-83
2023/05/09 13:46:14;;;;;;;2.97;1.62;;;;;;;18.28;38.03;100765.91;5567827;31;34205;-84
2023/05/09 13:49:21;;;;;;;1.77;1.65;;;;;;;18.42;37.94;100756.81;5567869;31;33564;-84
2023/05/09 13:52:29;;;;;;;1.58;1.48;;;;;;;18.54;37.85;100750.50;5576122;31;34172;-83
2023/05/09 13:55:35;;;;;;;2.25;1.80;;;;;;;18.27;38.80;100750.78;5573914;31;34054;-84
2023/05/09 13:58:39;;;;;;;4.15;1.70;;;;;;;17.83;39.80;100750.44;5558253;31;33720;-84
2023/05/09 14:01:44;;;;;;;2.47;1.60;;;;;;;17.58;40.35;100750.47;5554987;32;34462;-84
2023/05/09 14:04:53;;;;;;;1.58;1.45;;;;;;;17.43;40.55;100739.03;5567543;32;33926;-84
2023/05/09 14:08:02;;;;;;;2.90;1.50;;;;;;;17.17;41.02;100733.75;5561762;32;33986;-86
2023/05/09 14:11:08;;;;;;;4.95;1.60;;;;;;;17.09;41.41;100723.56;5560985;32;34587;-86
2023/05/09 14:14:13;;;;;;;3.92;1.62;;;;;;;16.91;42.21;100722.16;5571258;32;33876;-86
2023/05/09 14:17:20;;;;;;;1.70;1.60;;;;;;;17.20;41.12;100725.47;5570236;32;34221;-91
2023/05/09 14:20:26;;;;;;;1.48;1.20;;;;;;;17.59;40.37;100717.28;5570296;32;34234;-90
2023/05/09 14:23:33;;;;;;;2.08;1.90;;;;;;;17.88;39.35;100719.63;5572122;32;34055;-86
2023/05/09 14:26:39;;;;;;;3.78;1.67;;;;;;;17.71;39.64;100715.50;5567730;32;34030;-83
2023/05/09 14:29:45;;;;;;;7.32;1.80;;;;;;;17.92;39.82;100712.22;5570251;32;33797;-84
2023/05/09 14:32:49;;;;;;;3.70;1.70;;;;;;;18.10;39.97;100709.97;5570052;32;33500;-85
2023/05/09 14:36:00;;;;;;;4.97;1.67;;;;;;;18.00;40.42;100711.63;5565991;32;33769;-86
2023/05/09 14:39:04;;;;;;;3.28;1.60;;;;;;;17.78;40.71;100708.75;5550763;32;34507;-86
2023/05/09 14:42:12;;;;;;;3.83;1.60;;;;;;;17.30;41.72;100695.31;5556209;32;34120;-85
2023/05/09 14:45:18;;;;;;;1.80;1.70;;;;;;;17.14;42.35;100701.78;5547618;32;33907;-86
2023/05/09 14:48:25;;;;;;;2.40;1.60;;;;;;;17.06;42.43;100699.66;5547626;32;33641;-86
2023/05/09 14:51:32;;;;;;;1.75;1.65;;;;;;;16.88;42.99;100704.50;5547709;32;34064;-86
2023/05/09 14:54:38;;;;;;;1.90;1.80;;;;;;;16.85;43.02;100707.41;5546274;32;34564;-86
2023/05/09 14:57:43;;;;;;;2.25;1.80;;;;;;;16.84;42.53;100701.16;5546896;32;33492;-86
2023/05/09 15:00:52;;;;;;;1.92;1.70;;;;;;;16.73;42.88;100697.56;5550394;31;33971;-86
2023/05/09 15:03:57;;;;;;;2.10;1.70;;;;;;;16.84;43.25;100692.28;5587938;31;33541;-86
2023/05/09 15:07:06;;;;;;;4.60;1.77;;;;;;;17.33;41.89;100693.25;5588265;31;34472;-86
2023/05/09 15:10:13;;;;;;;2.40;1.40;;;;;;;17.64;42.00;100688.31;5579659;31;33499;-85
2023/05/09 15:13:21;;;;;;;1.70;1.60;;;;;;;17.71;40.67;100688.69;5585618;31;33578;-85
2023/05/09 15:16:30;;;;;;;1.62;1.52;;;;;;;17.55;41.03;100686.28;5587771;31;34278;-85
2023/05/09 15:19:42;;;;;;;2.50;1.60;;;;;;;17.09;42.51;100685.16;5587003;31;33658;-85
2023/05/09 15:22:51;;;;;;;2.97;1.60;;;;;;;16.85;43.08;100688.66;5584973;31;33479;-85
2023/05/09 15:26:00;;;;;;;1.87;1.47;;;;;;;16.74;43.76;100680.50;5569636;31;33900;-85
2023/05/09 15:29:04;;;;;;;1.92;1.70;;;;;;;16.87;43.42;100677.78;5567127;32;34069;-90
2023/05/09 15:32:11;;;;;;;2.97;1.65;;;;;;;17.11;42.48;100673.38;5569260;31;34344;-90
2023/05/09 15:35:17;;;;;;;1.80;1.42;;;;;;;17.42;41.63;100667.59;5593764;31;33755;-86
2023/05/09 15:38:23;;;;;;;1.55;1.35;;;;;;;17.59;41.62;100660.97;5594234;31;34491;-85
2023/05/09 15:41:31;;;;;;;2.05;1.75;;;;;;;17.52;41.78;100665.09;5598407;31;34017;-86
2023/05/09 15:44:42;;;;;;;3.78;1.75;;;;;;;17.40;42.21;100658.78;5599711;31;33670;-86
